sensor_id;sensor_type;location;lat;lon;timestamp;P1;durP1;ratioP1;P2;durP2;ratioP2
56363;SDS011;42261;52.094;4.326;2022-12-10T00:00:08;75.25;;;26.30;;
56363;SDS011;42261;52.094;4.326;2022-12-10T00:02:53;69.28;;;23.75;;
56363;SDS011;42261;52.094;4.326;2022-12-10T00:05:39;73.45;;;24.85;;
56363;SDS011;42261;52.094;4.326;2022-12-10T00:08:23;77.72;;;26.02;;
56363;SDS011;42261;52.094;4.326;2022-12-10T00:11:08;79.13;;;25.58;;
56363;SDS011;42261;52.094;4.326;2022-12-10T00:13:54;76.07;;;26.67;;
56363;SDS011;42261;52.094;4.326;2022-12-10T00:16:39;76.43;;;26.08;;
56363;SDS011;42261;52.094;4.326;2022-12-10T00:19:23;77.68;;;26.38;;
56363;SDS011;42261;52.094;4.326;2022-12-10T00:22:08;87.60;;;27.35;;
56363;SDS011;42261;52.094;4.326;2022-12-10T00:24:52;90.97;;;26.45;;
56363;SDS011;42261;52.094;4.326;2022-12-10T00:27:36;85.78;;;28.13;;
56363;SDS011;42261;52.094;4.326;2022-12-10T00:30:22;86.30;;;27.88;;
56363;SDS011;42261;52.094;4.326;2022-12-10T00:33:06;74.95;;;27.00;;
56363;SDS011;42261;52.094;4.326;2022-12-10T00:35:50;83.68;;;29.48;;
56363;SDS011;42261;52.094;4.326;2022-12-10T00:38:35;78.47;;;27.73;;
56363;SDS011;42261;52.094;4.326;2022-12-10T00:41:20;81.93;;;25.50;;
56363;SDS011;42261;52.094;4.326;2022-12-10T00:44:04;78.80;;;27.58;;
56363;SDS011;42261;52.094;4.326;2022-12-10T00:46:49;72.57;;;27.02;;
56363;SDS011;42261;52.094;4.326;2022-12-10T00:49:33;78.88;;;27.20;;
56363;SDS011;42261;52.094;4.326;2022-12-10T00:52:17;79.75;;;28.65;;
56363;SDS011;42261;52.094;4.326;2022-12-10T00:55:01;75.63;;;24.98;;
56363;SDS011;42261;52.094;4.326;2022-12-10T00:57:46;70.97;;;26.17;;
56363;SDS011;42261;52.094;4.326;2022-12-10T01:00:30;84.30;;;27.83;;
56363;SDS011;42261;52.094;4.326;2022-12-10T01:03:15;76.95;;;27.25;;
56363;SDS011;42261;52.094;4.326;2022-12-10T01:06:07;80.72;;;24.98;;
56363;SDS011;42261;52.094;4.326;2022-12-10T01:09:06;81.43;;;28.20;;
56363;SDS011;42261;52.094;4.326;2022-12-10T01:11:51;84.68;;;29.15;;
56363;SDS011;42261;52.094;4.326;2022-12-10T01:14:36;74.00;;;27.05;;
56363;SDS011;42261;52.094;4.326;2022-12-10T01:17:20;78.68;;;26.67;;
56363;SDS011;42261;52.094;4.326;2022-12-10T01:20:05;70.50;;;28.45;;
56363;SDS011;42261;52.094;4.326;2022-12-10T01:22:50;84.40;;;28.60;;
56363;SDS011;42261;52.094;4.326;2022-12-10T01:25:34;83.72;;;28.55;;
56363;SDS011;42261;52.094;4.326;2022-12-10T01:28:19;74.50;;;27.65;;
56363;SDS011;42261;52.094;4.326;2022-12-10T01:31:12;72.72;;;25.73;;
56363;SDS011;42261;52.094;4.326;2022-12-10T01:33:58;78.32;;;28.80;;
56363;SDS011;42261;52.094;4.326;2022-12-10T01:36:44;68.03;;;26.02;;
56363;SDS011;42261;52.094;4.326;2022-12-10T01:39:28;65.47;;;22.65;;
56363;SDS011;42261;52.094;4.326;2022-12-10T01:42:13;63.78;;;24.33;;
56363;SDS011;42261;52.094;4.326;2022-12-10T01:45:02;69.95;;;25.77;;
56363;SDS011;42261;52.094;4.326;2022-12-10T01:47:48;77.07;;;26.38;;
56363;SDS011;42261;52.094;4.326;2022-12-10T01:50:32;68.60;;;24.63;;
56363;SDS011;42261;52.094;4.326;2022-12-10T01:53:17;73.68;;;24.60;;
56363;SDS011;42261;52.094;4.326;2022-12-10T01:56:01;79.60;;;26.92;;
56363;SDS011;42261;52.094;4.326;2022-12-10T01:58:47;70.60;;;25.48;;
56363;SDS011;42261;52.094;4.326;2022-12-10T02:01:40;83.20;;;29.55;;
56363;SDS011;42261;52.094;4.326;2022-12-10T02:04:56;77.43;;;28.40;;
56363;SDS011;42261;52.094;4.326;2022-12-10T02:07:57;96.50;;;25.95;;
56363;SDS011;42261;52.094;4.326;2022-12-10T02:13:42;77.30;;;25.85;;
56363;SDS011;42261;52.094;4.326;2022-12-10T02:16:55;72.72;;;23.58;;
56363;SDS011;42261;52.094;4.326;2022-12-10T02:26:06;71.68;;;24.20;;
56363;SDS011;42261;52.094;4.326;2022-12-10T02:35:00;82.07;;;23.48;;
56363;SDS011;42261;52.094;4.326;2022-12-10T02:37:49;93.65;;;27.73;;
56363;SDS011;42261;52.094;4.326;2022-12-10T02:40:39;88.95;;;28.35;;
56363;SDS011;42261;52.094;4.326;2022-12-10T02:43:28;84.28;;;26.27;;
56363;SDS011;42261;52.094;4.326;2022-12-10T02:46:13;82.13;;;29.08;;
56363;SDS011;42261;52.094;4.326;2022-12-10T02:48:57;94.43;;;32.35;;
56363;SDS011;42261;52.094;4.326;2022-12-10T02:51:42;91.18;;;31.15;;
56363;SDS011;42261;52.094;4.326;2022-12-10T02:54:33;82.10;;;28.08;;
56363;SDS011;42261;52.094;4.326;2022-12-10T02:57:23;76.20;;;27.77;;
56363;SDS011;42261;52.094;4.326;2022-12-10T03:00:17;92.00;;;29.30;;
56363;SDS011;42261;52.094;4.326;2022-12-10T03:11:56;112.60;;;32.58;;
56363;SDS011;42261;52.094;4.326;2022-12-10T03:14:42;143.88;;;31.13;;
56363;SDS011;42261;52.094;4.326;2022-12-10T03:17:28;106.32;;;29.67;;
56363;SDS011;42261;52.094;4.326;2022-12-10T03:20:15;93.50;;;29.02;;
56363;SDS011;42261;52.094;4.326;2022-12-10T03:23:00;142.73;;;34.80;;
56363;SDS011;42261;52.094;4.326;2022-12-10T03:25:46;123.30;;;28.70;;
56363;SDS011;42261;52.094;4.326;2022-12-10T03:28:32;142.18;;;30.58;;
56363;SDS011;42261;52.094;4.326;2022-12-10T03:31:19;94.88;;;29.40;;
56363;SDS011;42261;52.094;4.326;2022-12-10T03:34:04;124.53;;;32.88;;
56363;SDS011;42261;52.094;4.326;2022-12-10T03:36:49;80.00;;;26.52;;
56363;SDS011;42261;52.094;4.326;2022-12-10T03:39:34;94.82;;;30.13;;
56363;SDS011;42261;52.094;4.326;2022-12-10T03:42:18;112.95;;;29.52;;
56363;SDS011;42261;52.094;4.326;2022-12-10T03:45:03;143.57;;;30.90;;
56363;SDS011;42261;52.094;4.326;2022-12-10T03:47:48;82.93;;;27.73;;
56363;SDS011;42261;52.094;4.326;2022-12-10T03:50:33;79.55;;;27.40;;
56363;SDS011;42261;52.094;4.326;2022-12-10T03:53:17;88.93;;;27.25;;
56363;SDS011;42261;52.094;4.326;2022-12-10T03:56:01;136.27;;;30.65;;
56363;SDS011;42261;52.094;4.326;2022-12-10T03:58:45;90.32;;;26.83;;
56363;SDS011;42261;52.094;4.326;2022-12-10T04:01:30;96.95;;;28.95;;
56363;SDS011;42261;52.094;4.326;2022-12-10T04:04:15;148.32;;;29.23;;
56363;SDS011;42261;52.094;4.326;2022-12-10T04:07:00;107.57;;;26.33;;
56363;SDS011;42261;52.094;4.326;2022-12-10T04:09:44;97.22;;;28.00;;
56363;SDS011;42261;52.094;4.326;2022-12-10T04:12:28;140.18;;;31.58;;
56363;SDS011;42261;52.094;4.326;2022-12-10T04:15:13;86.82;;;28.30;;
56363;SDS011;42261;52.094;4.326;2022-12-10T04:18:16;111.40;;;27.50;;
56363;SDS011;42261;52.094;4.326;2022-12-10T04:21:00;109.63;;;26.38;;
56363;SDS011;42261;52.094;4.326;2022-12-10T04:24:24;105.38;;;25.67;;
56363;SDS011;42261;52.094;4.326;2022-12-10T04:27:32;90.60;;;26.60;;
56363;SDS011;42261;52.094;4.326;2022-12-10T04:30:18;79.70;;;27.23;;
56363;SDS011;42261;52.094;4.326;2022-12-10T04:33:02;89.80;;;26.83;;
56363;SDS011;42261;52.094;4.326;2022-12-10T04:35:46;100.03;;;29.60;;
56363;SDS011;42261;52.094;4.326;2022-12-10T04:38:30;115.57;;;26.75;;
56363;SDS011;42261;52.094;4.326;2022-12-10T04:41:15;96.07;;;28.27;;
56363;SDS011;42261;52.094;4.326;2022-12-10T04:43:59;82.60;;;24.60;;
56363;SDS011;42261;52.094;4.326;2022-12-10T04:46:43;76.53;;;23.63;;
56363;SDS011;42261;52.094;4.326;2022-12-10T04:49:28;85.18;;;26.23;;
56363;SDS011;42261;52.094;4.326;2022-12-10T04:52:14;76.30;;;23.55;;
56363;SDS011;42261;52.094;4.326;2022-12-10T04:54:59;90.72;;;23.83;;
56363;SDS011;42261;52.094;4.326;2022-12-10T04:57:43;76.68;;;26.42;;
56363;SDS011;42261;52.094;4.326;2022-12-10T05:00:27;248.75;;;40.47;;
56363;SDS011;42261;52.094;4.326;2022-12-10T05:03:13;80.00;;;25.92;;
56363;SDS011;42261;52.094;4.326;2022-12-10T05:06:02;106.13;;;25.85;;
56363;SDS011;42261;52.094;4.326;2022-12-10T05:08:47;87.28;;;25.55;;
56363;SDS011;42261;52.094;4.326;2022-12-10T05:11:32;76.55;;;23.55;;
56363;SDS011;42261;52.094;4.326;2022-12-10T05:14:17;73.78;;;24.80;;
56363;SDS011;42261;52.094;4.326;2022-12-10T05:17:01;73.43;;;23.05;;
56363;SDS011;42261;52.094;4.326;2022-12-10T05:19:45;100.13;;;25.45;;
56363;SDS011;42261;52.094;4.326;2022-12-10T05:22:30;69.30;;;24.95;;
56363;SDS011;42261;52.094;4.326;2022-12-10T05:25:33;57.58;;;22.20;;
56363;SDS011;42261;52.094;4.326;2022-12-10T05:28:38;95.15;;;24.85;;
56363;SDS011;42261;52.094;4.326;2022-12-10T05:31:32;75.25;;;21.55;;
56363;SDS011;42261;52.094;4.326;2022-12-10T05:34:16;70.50;;;22.83;;
56363;SDS011;42261;52.094;4.326;2022-12-10T05:37:01;91.70;;;23.73;;
56363;SDS011;42261;52.094;4.326;2022-12-10T05:39:47;64.00;;;19.65;;
56363;SDS011;42261;52.094;4.326;2022-12-10T05:42:31;50.33;;;18.50;;
56363;SDS011;42261;52.094;4.326;2022-12-10T05:45:15;65.18;;;21.02;;
56363;SDS011;42261;52.094;4.326;2022-12-10T05:48:01;55.15;;;20.33;;
56363;SDS011;42261;52.094;4.326;2022-12-10T05:50:45;84.72;;;18.83;;
56363;SDS011;42261;52.094;4.326;2022-12-10T05:53:29;58.55;;;20.42;;
56363;SDS011;42261;52.094;4.326;2022-12-10T05:56:14;82.70;;;19.80;;
56363;SDS011;42261;52.094;4.326;2022-12-10T05:59:00;53.83;;;17.80;;
56363;SDS011;42261;52.094;4.326;2022-12-10T06:01:45;55.45;;;17.27;;
56363;SDS011;42261;52.094;4.326;2022-12-10T06:04:31;44.33;;;17.20;;
56363;SDS011;42261;52.094;4.326;2022-12-10T06:07:15;52.25;;;18.55;;
56363;SDS011;42261;52.094;4.326;2022-12-10T06:09:59;44.22;;;16.98;;
56363;SDS011;42261;52.094;4.326;2022-12-10T06:12:43;42.58;;;16.42;;
56363;SDS011;42261;52.094;4.326;2022-12-10T06:15:27;47.90;;;16.48;;
56363;SDS011;42261;52.094;4.326;2022-12-10T06:18:12;36.65;;;14.45;;
56363;SDS011;42261;52.094;4.326;2022-12-10T06:20:56;48.35;;;16.42;;
56363;SDS011;42261;52.094;4.326;2022-12-10T06:23:40;45.88;;;16.80;;
56363;SDS011;42261;52.094;4.326;2022-12-10T06:26:25;38.25;;;14.75;;
56363;SDS011;42261;52.094;4.326;2022-12-10T06:29:09;51.97;;;15.90;;
56363;SDS011;42261;52.094;4.326;2022-12-10T06:31:53;42.63;;;16.67;;
56363;SDS011;42261;52.094;4.326;2022-12-10T06:34:37;41.15;;;14.23;;
56363;SDS011;42261;52.094;4.326;2022-12-10T06:37:22;38.20;;;15.52;;
56363;SDS011;42261;52.094;4.326;2022-12-10T06:40:06;34.88;;;14.27;;
56363;SDS011;42261;52.094;4.326;2022-12-10T06:42:51;39.92;;;15.80;;
56363;SDS011;42261;52.094;4.326;2022-12-10T06:45:39;47.28;;;17.00;;
56363;SDS011;42261;52.094;4.326;2022-12-10T06:48:24;39.42;;;15.73;;
56363;SDS011;42261;52.094;4.326;2022-12-10T06:51:08;42.72;;;15.77;;
56363;SDS011;42261;52.094;4.326;2022-12-10T06:53:53;41.58;;;14.05;;
56363;SDS011;42261;52.094;4.326;2022-12-10T06:56:39;34.63;;;15.07;;
56363;SDS011;42261;52.094;4.326;2022-12-10T06:59:24;35.13;;;14.68;;
56363;SDS011;42261;52.094;4.326;2022-12-10T07:02:09;32.85;;;13.77;;
56363;SDS011;42261;52.094;4.326;2022-12-10T07:04:55;37.90;;;16.42;;
56363;SDS011;42261;52.094;4.326;2022-12-10T07:07:40;36.15;;;14.88;;
56363;SDS011;42261;52.094;4.326;2022-12-10T07:10:27;36.85;;;15.13;;
56363;SDS011;42261;52.094;4.326;2022-12-10T07:13:13;32.50;;;16.25;;
56363;SDS011;42261;52.094;4.326;2022-12-10T07:15:58;34.20;;;14.63;;
56363;SDS011;42261;52.094;4.326;2022-12-10T07:18:42;47.05;;;18.70;;
56363;SDS011;42261;52.094;4.326;2022-12-10T07:21:29;43.67;;;15.75;;
56363;SDS011;42261;52.094;4.326;2022-12-10T07:24:16;42.15;;;15.82;;
56363;SDS011;42261;52.094;4.326;2022-12-10T07:27:04;38.95;;;16.58;;
56363;SDS011;42261;52.094;4.326;2022-12-10T07:29:49;36.83;;;15.20;;
56363;SDS011;42261;52.094;4.326;2022-12-10T07:32:35;36.40;;;16.92;;
56363;SDS011;42261;52.094;4.326;2022-12-10T07:35:20;51.88;;;17.48;;
56363;SDS011;42261;52.094;4.326;2022-12-10T07:38:05;42.67;;;18.02;;
56363;SDS011;42261;52.094;4.326;2022-12-10T07:40:49;48.72;;;16.90;;
56363;SDS011;42261;52.094;4.326;2022-12-10T07:43:36;47.40;;;17.23;;
56363;SDS011;42261;52.094;4.326;2022-12-10T07:46:26;39.85;;;16.70;;
56363;SDS011;42261;52.094;4.326;2022-12-10T07:49:14;44.15;;;18.00;;
56363;SDS011;42261;52.094;4.326;2022-12-10T07:51:59;43.42;;;17.85;;
56363;SDS011;42261;52.094;4.326;2022-12-10T07:54:43;40.10;;;17.67;;
56363;SDS011;42261;52.094;4.326;2022-12-10T07:57:28;42.03;;;16.83;;
56363;SDS011;42261;52.094;4.326;2022-12-10T08:00:13;53.28;;;17.10;;
56363;SDS011;42261;52.094;4.326;2022-12-10T08:03:01;54.63;;;19.33;;
56363;SDS011;42261;52.094;4.326;2022-12-10T08:05:46;46.55;;;17.13;;
56363;SDS011;42261;52.094;4.326;2022-12-10T08:08:32;50.60;;;17.27;;
56363;SDS011;42261;52.094;4.326;2022-12-10T08:11:17;48.85;;;18.58;;
56363;SDS011;42261;52.094;4.326;2022-12-10T08:14:03;50.35;;;18.13;;
56363;SDS011;42261;52.094;4.326;2022-12-10T08:16:47;50.67;;;17.40;;
56363;SDS011;42261;52.094;4.326;2022-12-10T08:19:31;48.97;;;18.30;;
56363;SDS011;42261;52.094;4.326;2022-12-10T08:22:17;45.95;;;18.55;;
56363;SDS011;42261;52.094;4.326;2022-12-10T08:25:01;45.63;;;18.77;;
56363;SDS011;42261;52.094;4.326;2022-12-10T08:27:46;43.13;;;18.45;;
56363;SDS011;42261;52.094;4.326;2022-12-10T08:30:32;42.85;;;16.67;;
56363;SDS011;42261;52.094;4.326;2022-12-10T08:33:16;61.80;;;19.35;;
56363;SDS011;42261;52.094;4.326;2022-12-10T08:36:00;45.15;;;17.40;;
56363;SDS011;42261;52.094;4.326;2022-12-10T08:41:33;51.20;;;18.50;;
56363;SDS011;42261;52.094;4.326;2022-12-10T08:44:19;47.30;;;18.08;;
56363;SDS011;42261;52.094;4.326;2022-12-10T08:47:03;44.90;;;18.33;;
56363;SDS011;42261;52.094;4.326;2022-12-10T08:49:49;50.00;;;19.35;;
56363;SDS011;42261;52.094;4.326;2022-12-10T08:52:33;43.63;;;18.48;;
56363;SDS011;42261;52.094;4.326;2022-12-10T08:55:17;43.72;;;18.38;;
56363;SDS011;42261;52.094;4.326;2022-12-10T08:58:01;50.60;;;17.88;;
56363;SDS011;42261;52.094;4.326;2022-12-10T09:00:47;53.88;;;18.38;;
56363;SDS011;42261;52.094;4.326;2022-12-10T09:03:33;48.72;;;19.65;;
56363;SDS011;42261;52.094;4.326;2022-12-10T09:06:20;44.58;;;19.35;;
56363;SDS011;42261;52.094;4.326;2022-12-10T09:09:05;60.30;;;18.38;;
56363;SDS011;42261;52.094;4.326;2022-12-10T09:11:49;56.85;;;20.17;;
56363;SDS011;42261;52.094;4.326;2022-12-10T09:14:33;49.42;;;19.38;;
56363;SDS011;42261;52.094;4.326;2022-12-10T09:17:18;55.42;;;18.60;;
56363;SDS011;42261;52.094;4.326;2022-12-10T09:20:04;52.25;;;20.45;;
56363;SDS011;42261;52.094;4.326;2022-12-10T09:22:49;55.28;;;20.75;;
56363;SDS011;42261;52.094;4.326;2022-12-10T09:25:33;52.20;;;19.70;;
56363;SDS011;42261;52.094;4.326;2022-12-10T09:28:17;58.95;;;20.15;;
56363;SDS011;42261;52.094;4.326;2022-12-10T09:31:02;65.18;;;23.02;;
56363;SDS011;42261;52.094;4.326;2022-12-10T09:33:48;51.72;;;19.23;;
56363;SDS011;42261;52.094;4.326;2022-12-10T09:36:33;84.43;;;22.90;;
56363;SDS011;42261;52.094;4.326;2022-12-10T09:39:18;51.00;;;19.52;;
56363;SDS011;42261;52.094;4.326;2022-12-10T09:42:07;72.05;;;22.17;;
56363;SDS011;42261;52.094;4.326;2022-12-10T09:51:27;63.60;;;21.40;;
56363;SDS011;42261;52.094;4.326;2022-12-10T09:57:06;72.13;;;23.60;;
56363;SDS011;42261;52.094;4.326;2022-12-10T09:59:58;67.53;;;23.10;;
56363;SDS011;42261;52.094;4.326;2022-12-10T10:02:48;64.20;;;20.52;;
56363;SDS011;42261;52.094;4.326;2022-12-10T10:05:44;57.17;;;22.00;;
56363;SDS011;42261;52.094;4.326;2022-12-10T10:08:32;55.30;;;19.92;;
56363;SDS011;42261;52.094;4.326;2022-12-10T10:11:22;57.55;;;23.48;;
56363;SDS011;42261;52.094;4.326;2022-12-10T10:14:12;66.03;;;23.30;;
56363;SDS011;42261;52.094;4.326;2022-12-10T10:17:04;68.63;;;22.90;;
56363;SDS011;42261;52.094;4.326;2022-12-10T10:19:55;74.13;;;21.80;;
56363;SDS011;42261;52.094;4.326;2022-12-10T10:22:40;58.33;;;23.38;;
56363;SDS011;42261;52.094;4.326;2022-12-10T10:25:25;66.82;;;23.60;;
56363;SDS011;42261;52.094;4.326;2022-12-10T10:28:10;49.00;;;20.45;;
56363;SDS011;42261;52.094;4.326;2022-12-10T10:30:57;61.80;;;19.90;;
56363;SDS011;42261;52.094;4.326;2022-12-10T10:33:51;65.03;;;21.65;;
56363;SDS011;42261;52.094;4.326;2022-12-10T10:36:40;56.60;;;21.02;;
56363;SDS011;42261;52.094;4.326;2022-12-10T10:39:27;58.60;;;21.95;;
56363;SDS011;42261;52.094;4.326;2022-12-10T10:42:14;55.22;;;21.92;;
56363;SDS011;42261;52.094;4.326;2022-12-10T10:48:20;62.65;;;24.02;;
56363;SDS011;42261;52.094;4.326;2022-12-10T10:53:56;67.20;;;23.48;;
56363;SDS011;42261;52.094;4.326;2022-12-10T10:56:41;54.67;;;20.33;;
56363;SDS011;42261;52.094;4.326;2022-12-10T10:59:34;60.95;;;22.80;;
56363;SDS011;42261;52.094;4.326;2022-12-10T11:02:22;58.53;;;22.48;;
56363;SDS011;42261;52.094;4.326;2022-12-10T11:05:15;62.53;;;21.60;;
56363;SDS011;42261;52.094;4.326;2022-12-10T11:08:04;63.08;;;22.17;;
56363;SDS011;42261;52.094;4.326;2022-12-10T11:14:26;54.22;;;21.90;;
56363;SDS011;42261;52.094;4.326;2022-12-10T11:17:20;59.83;;;22.63;;
56363;SDS011;42261;52.094;4.326;2022-12-10T11:20:17;62.88;;;23.10;;
56363;SDS011;42261;52.094;4.326;2022-12-10T11:23:04;69.40;;;23.13;;
56363;SDS011;42261;52.094;4.326;2022-12-10T11:40:45;61.85;;;22.00;;
56363;SDS011;42261;52.094;4.326;2022-12-10T11:44:39;63.08;;;24.40;;
56363;SDS011;42261;52.094;4.326;2022-12-10T11:49:53;61.80;;;22.60;;
56363;SDS011;42261;52.094;4.326;2022-12-10T11:59:16;54.65;;;20.15;;
56363;SDS011;42261;52.094;4.326;2022-12-10T12:05:28;61.97;;;23.73;;
56363;SDS011;42261;52.094;4.326;2022-12-10T12:08:27;59.22;;;21.05;;
56363;SDS011;42261;52.094;4.326;2022-12-10T12:17:26;59.63;;;21.88;;
56363;SDS011;42261;52.094;4.326;2022-12-10T12:23:21;75.13;;;23.38;;
56363;SDS011;42261;52.094;4.326;2022-12-10T12:26:16;67.80;;;22.30;;
56363;SDS011;42261;52.094;4.326;2022-12-10T12:35:06;59.72;;;21.30;;
56363;SDS011;42261;52.094;4.326;2022-12-10T12:38:07;68.05;;;23.15;;
56363;SDS011;42261;52.094;4.326;2022-12-10T12:50:55;71.70;;;22.73;;
56363;SDS011;42261;52.094;4.326;2022-12-10T12:53:38;57.10;;;19.80;;
56363;SDS011;42261;52.094;4.326;2022-12-10T13:05:43;65.45;;;22.42;;
56363;SDS011;42261;52.094;4.326;2022-12-10T13:08:29;89.18;;;26.48;;
56363;SDS011;42261;52.094;4.326;2022-12-10T13:16:58;67.82;;;25.00;;
56363;SDS011;42261;52.094;4.326;2022-12-10T13:19:46;76.10;;;25.75;;
56363;SDS011;42261;52.094;4.326;2022-12-10T13:25:37;72.90;;;22.67;;
56363;SDS011;42261;52.094;4.326;2022-12-10T13:39:35;62.13;;;19.88;;
56363;SDS011;42261;52.094;4.326;2022-12-10T13:42:31;60.40;;;21.52;;
56363;SDS011;42261;52.094;4.326;2022-12-10T13:45:36;58.25;;;21.20;;
56363;SDS011;42261;52.094;4.326;2022-12-10T13:48:28;60.22;;;21.92;;
56363;SDS011;42261;52.094;4.326;2022-12-10T13:51:21;52.78;;;23.38;;
56363;SDS011;42261;52.094;4.326;2022-12-10T14:00:00;54.38;;;20.33;;
56363;SDS011;42261;52.094;4.326;2022-12-10T14:09:05;62.60;;;21.17;;
56363;SDS011;42261;52.094;4.326;2022-12-10T14:12:01;52.97;;;19.58;;
56363;SDS011;42261;52.094;4.326;2022-12-10T14:14:58;49.20;;;18.77;;
56363;SDS011;42261;52.094;4.326;2022-12-10T14:17:44;57.10;;;21.70;;
56363;SDS011;42261;52.094;4.326;2022-12-10T14:20:32;55.55;;;20.23;;
56363;SDS011;42261;52.094;4.326;2022-12-10T14:26:21;63.78;;;22.13;;
56363;SDS011;42261;52.094;4.326;2022-12-10T14:29:17;54.20;;;19.85;;
56363;SDS011;42261;52.094;4.326;2022-12-10T14:32:03;55.78;;;22.00;;
56363;SDS011;42261;52.094;4.326;2022-12-10T14:34:53;58.20;;;21.52;;
56363;SDS011;42261;52.094;4.326;2022-12-10T14:37:39;51.38;;;20.20;;
56363;SDS011;42261;52.094;4.326;2022-12-10T14:40:27;49.50;;;21.00;;
56363;SDS011;42261;52.094;4.326;2022-12-10T14:43:20;56.67;;;21.67;;
56363;SDS011;42261;52.094;4.326;2022-12-10T14:46:18;47.03;;;19.70;;
56363;SDS011;42261;52.094;4.326;2022-12-10T14:49:17;53.92;;;18.80;;
56363;SDS011;42261;52.094;4.326;2022-12-10T14:52:03;53.67;;;19.33;;
56363;SDS011;42261;52.094;4.326;2022-12-10T14:54:54;46.95;;;18.70;;
56363;SDS011;42261;52.094;4.326;2022-12-10T14:57:40;50.33;;;19.67;;
56363;SDS011;42261;52.094;4.326;2022-12-10T15:00:29;47.65;;;19.48;;
56363;SDS011;42261;52.094;4.326;2022-12-10T15:03:20;46.75;;;17.73;;
56363;SDS011;42261;52.094;4.326;2022-12-10T15:06:12;50.40;;;20.92;;
56363;SDS011;42261;52.094;4.326;2022-12-10T15:09:00;51.63;;;19.20;;
56363;SDS011;42261;52.094;4.326;2022-12-10T15:11:44;49.33;;;20.83;;
56363;SDS011;42261;52.094;4.326;2022-12-10T15:14:29;53.28;;;20.15;;
56363;SDS011;42261;52.094;4.326;2022-12-10T15:17:34;42.53;;;18.75;;
56363;SDS011;42261;52.094;4.326;2022-12-10T15:20:21;41.92;;;19.23;;
56363;SDS011;42261;52.094;4.326;2022-12-10T15:24:06;38.15;;;16.40;;
56363;SDS011;42261;52.094;4.326;2022-12-10T15:26:20;35.50;;;15.63;;
56363;SDS011;42261;52.094;4.326;2022-12-10T15:29:26;38.67;;;15.93;;
56363;SDS011;42261;52.094;4.326;2022-12-10T15:32:21;37.97;;;17.52;;
56363;SDS011;42261;52.094;4.326;2022-12-10T15:35:10;45.53;;;17.85;;
56363;SDS011;42261;52.094;4.326;2022-12-10T15:37:57;45.55;;;18.55;;
56363;SDS011;42261;52.094;4.326;2022-12-10T15:40:44;50.17;;;19.85;;
56363;SDS011;42261;52.094;4.326;2022-12-10T15:43:29;59.47;;;20.83;;
56363;SDS011;42261;52.094;4.326;2022-12-10T15:46:15;53.80;;;21.10;;
56363;SDS011;42261;52.094;4.326;2022-12-10T15:49:01;53.47;;;22.00;;
56363;SDS011;42261;52.094;4.326;2022-12-10T15:51:46;49.67;;;18.83;;
56363;SDS011;42261;52.094;4.326;2022-12-10T15:54:37;53.00;;;20.85;;
56363;SDS011;42261;52.094;4.326;2022-12-10T15:57:27;51.70;;;21.10;;
56363;SDS011;42261;52.094;4.326;2022-12-10T16:00:19;52.80;;;18.73;;
56363;SDS011;42261;52.094;4.326;2022-12-10T16:03:05;46.03;;;17.45;;
56363;SDS011;42261;52.094;4.326;2022-12-10T16:05:55;49.33;;;19.17;;
56363;SDS011;42261;52.094;4.326;2022-12-10T16:08:39;47.78;;;20.90;;
56363;SDS011;42261;52.094;4.326;2022-12-10T16:11:24;43.60;;;17.27;;
56363;SDS011;42261;52.094;4.326;2022-12-10T16:14:08;47.78;;;18.88;;
56363;SDS011;42261;52.094;4.326;2022-12-10T16:16:53;49.45;;;18.58;;
56363;SDS011;42261;52.094;4.326;2022-12-10T16:19:37;38.33;;;15.07;;
56363;SDS011;42261;52.094;4.326;2022-12-10T16:22:22;38.47;;;16.13;;
56363;SDS011;42261;52.094;4.326;2022-12-10T16:25:07;36.80;;;15.18;;
56363;SDS011;42261;52.094;4.326;2022-12-10T16:27:51;36.25;;;15.50;;
56363;SDS011;42261;52.094;4.326;2022-12-10T16:30:37;36.08;;;14.43;;
56363;SDS011;42261;52.094;4.326;2022-12-10T16:33:25;37.28;;;14.88;;
56363;SDS011;42261;52.094;4.326;2022-12-10T16:36:10;42.25;;;17.13;;
56363;SDS011;42261;52.094;4.326;2022-12-10T16:38:55;43.10;;;17.23;;
56363;SDS011;42261;52.094;4.326;2022-12-10T16:41:39;42.40;;;16.70;;
56363;SDS011;42261;52.094;4.326;2022-12-10T16:44:23;44.05;;;16.17;;
56363;SDS011;42261;52.094;4.326;2022-12-10T16:47:11;42.03;;;17.58;;
56363;SDS011;42261;52.094;4.326;2022-12-10T16:49:56;44.90;;;18.30;;
56363;SDS011;42261;52.094;4.326;2022-12-10T16:52:40;38.08;;;16.40;;
56363;SDS011;42261;52.094;4.326;2022-12-10T16:55:44;42.45;;;17.20;;
56363;SDS011;42261;52.094;4.326;2022-12-10T16:58:29;44.53;;;18.65;;
56363;SDS011;42261;52.094;4.326;2022-12-10T17:01:17;37.00;;;16.88;;
56363;SDS011;42261;52.094;4.326;2022-12-10T17:04:08;38.53;;;16.40;;
56363;SDS011;42261;52.094;4.326;2022-12-10T17:06:52;39.60;;;17.75;;
56363;SDS011;42261;52.094;4.326;2022-12-10T17:09:37;35.13;;;15.95;;
56363;SDS011;42261;52.094;4.326;2022-12-10T17:12:22;37.67;;;16.13;;
56363;SDS011;42261;52.094;4.326;2022-12-10T17:15:13;34.35;;;15.52;;
56363;SDS011;42261;52.094;4.326;2022-12-10T17:17:57;34.10;;;13.43;;
56363;SDS011;42261;52.094;4.326;2022-12-10T17:20:43;35.13;;;13.95;;
56363;SDS011;42261;52.094;4.326;2022-12-10T17:23:31;32.65;;;15.55;;
56363;SDS011;42261;52.094;4.326;2022-12-10T17:26:23;36.20;;;15.23;;
56363;SDS011;42261;52.094;4.326;2022-12-10T17:29:24;28.55;;;12.88;;
56363;SDS011;42261;52.094;4.326;2022-12-10T17:32:12;35.47;;;14.85;;
56363;SDS011;42261;52.094;4.326;2022-12-10T17:35:00;42.72;;;16.73;;
56363;SDS011;42261;52.094;4.326;2022-12-10T17:37:45;36.85;;;16.45;;
56363;SDS011;42261;52.094;4.326;2022-12-10T17:40:30;34.95;;;16.80;;
56363;SDS011;42261;52.094;4.326;2022-12-10T17:43:15;44.80;;;17.95;;
56363;SDS011;42261;52.094;4.326;2022-12-10T17:46:00;36.40;;;15.57;;
56363;SDS011;42261;52.094;4.326;2022-12-10T17:48:44;35.72;;;15.27;;
56363;SDS011;42261;52.094;4.326;2022-12-10T17:51:29;32.72;;;13.32;;
56363;SDS011;42261;52.094;4.326;2022-12-10T17:54:13;40.75;;;15.02;;
56363;SDS011;42261;52.094;4.326;2022-12-10T17:56:59;37.63;;;16.60;;
56363;SDS011;42261;52.094;4.326;2022-12-10T17:59:44;35.05;;;15.05;;
56363;SDS011;42261;52.094;4.326;2022-12-10T18:02:29;31.95;;;13.73;;
56363;SDS011;42261;52.094;4.326;2022-12-10T18:05:13;27.63;;;12.85;;
56363;SDS011;42261;52.094;4.326;2022-12-10T18:08:01;34.55;;;13.15;;
56363;SDS011;42261;52.094;4.326;2022-12-10T18:10:48;27.00;;;11.02;;
56363;SDS011;42261;52.094;4.326;2022-12-10T18:13:33;20.58;;;8.70;;
56363;SDS011;42261;52.094;4.326;2022-12-10T18:16:19;29.02;;;9.93;;
56363;SDS011;42261;52.094;4.326;2022-12-10T18:19:10;15.35;;;7.60;;
56363;SDS011;42261;52.094;4.326;2022-12-10T18:22:00;18.77;;;8.32;;
56363;SDS011;42261;52.094;4.326;2022-12-10T18:24:48;27.00;;;9.27;;
56363;SDS011;42261;52.094;4.326;2022-12-10T18:27:34;19.95;;;9.50;;
56363;SDS011;42261;52.094;4.326;2022-12-10T18:30:23;22.27;;;9.73;;
56363;SDS011;42261;52.094;4.326;2022-12-10T18:33:09;17.00;;;8.35;;
56363;SDS011;42261;52.094;4.326;2022-12-10T18:36:02;18.98;;;9.10;;
56363;SDS011;42261;52.094;4.326;2022-12-10T18:38:48;20.52;;;10.15;;
56363;SDS011;42261;52.094;4.326;2022-12-10T18:41:33;20.30;;;8.57;;